createdAt,value
2018-10-21T00:00:11.756Z,0
2018-10-21T00:01:11.795Z,0
2018-10-21T00:02:12.175Z,0
2018-10-21T00:03:12.520Z,0
2018-10-21T00:04:12.071Z,0
2018-10-21T00:05:11.890Z,0
2018-10-21T00:06:11.667Z,0
2018-10-21T00:07:11.697Z,0
2018-10-21T00:08:11.972Z,0
2018-10-21T00:09:11.954Z,0
2018-10-21T00:10:12.029Z,0
2018-10-21T00:11:11.800Z,0
2018-10-21T00:12:11.825Z,0
2018-10-21T00:13:12.364Z,0
2018-10-21T00:14:12.388Z,0
2018-10-21T00:15:12.445Z,0
2018-10-21T00:16:12.188Z,0
2018-10-21T00:17:12.468Z,0
2018-10-21T00:18:12.493Z,0
2018-10-21T00:19:12.272Z,0
2018-10-21T00:20:12.295Z,0
2018-10-21T00:21:11.920Z,0
2018-10-21T00:22:12.358Z,0
2018-10-21T00:23:12.385Z,0
2018-10-21T00:24:12.406Z,0
2018-10-21T00:25:12.688Z,0
2018-10-21T00:26:12.709Z,0
2018-10-21T00:27:12.463Z,0
2018-10-21T00:28:12.004Z,0
2018-10-21T00:29:12.743Z,0
2018-10-21T00:30:12.317Z,0
2018-10-21T00:31:12.846Z,0
2018-10-21T00:32:12.367Z,0
2018-10-21T00:33:13.416Z,0
2018-10-21T00:34:12.414Z,0
2018-10-21T00:35:12.711Z,0
2018-10-21T00:36:12.727Z,0
2018-10-21T00:37:12.760Z,0
2018-10-21T00:38:12.770Z,0
2018-10-21T00:39:13.441Z,0
2018-10-21T00:40:12.840Z,0
2018-10-21T00:41:12.865Z,0
2018-10-21T00:42:12.883Z,0
2018-10-21T00:43:12.406Z,0
2018-10-21T00:44:12.443Z,0
2018-10-21T00:45:13.353Z,0
2018-10-21T00:46:12.991Z,0
2018-10-21T00:47:13.028Z,0
2018-10-21T00:48:13.291Z,0
2018-10-21T00:49:13.327Z,0
2018-10-21T00:50:13.348Z,0
2018-10-21T00:51:13.469Z,0
2018-10-21T00:52:13.405Z,0
2018-10-21T00:53:12.927Z,0
2018-10-21T00:54:13.210Z,0
2018-10-21T00:55:13.491Z,0
2018-10-21T00:56:13.014Z,0
2018-10-21T00:57:13.198Z,0
2018-10-21T00:58:13.572Z,0
2018-10-21T00:59:12.841Z,0
2018-10-21T01:00:13.622Z,0
2018-10-21T01:01:13.389Z,0
2018-10-21T01:02:13.422Z,0
2018-10-21T01:03:13.434Z,0
2018-10-21T01:04:13.763Z,0
2018-10-21T01:05:13.750Z,0
2018-10-21T01:06:13.781Z,0
2018-10-21T01:07:13.808Z,0
2018-10-21T01:08:13.828Z,0
2018-10-21T01:09:14.224Z,0
2018-10-21T01:10:13.889Z,0
2018-10-21T01:11:13.408Z,0
2018-10-21T01:12:13.443Z,0
2018-10-21T01:13:13.477Z,0
2018-10-21T01:14:13.990Z,0
2018-10-21T01:15:13.765Z,0
2018-10-21T01:16:13.539Z,0
2018-10-21T01:17:14.083Z,0
2018-10-21T01:18:14.096Z,0
2018-10-21T01:19:13.882Z,0
2018-10-21T01:20:14.161Z,0
2018-10-21T01:21:14.149Z,0
2018-10-21T01:22:13.454Z,0
2018-10-21T01:23:13.979Z,0
2018-10-21T01:24:13.756Z,0
2018-10-21T01:25:14.040Z,0
2018-10-21T01:26:14.321Z,0
2018-10-21T01:27:14.776Z,0
2018-10-21T01:28:14.124Z,0
2018-10-21T01:29:13.892Z,0
2018-10-21T01:30:13.667Z,0
2018-10-21T01:31:14.449Z,0
2018-10-21T01:32:14.228Z,0
2018-10-21T01:33:14.509Z,0
2018-10-21T01:34:14.028Z,0
2018-10-21T01:35:14.565Z,0
2018-10-21T01:36:14.704Z,0
2018-10-21T01:37:14.334Z,0
2018-10-21T01:38:14.309Z,0
2018-10-21T01:39:15.089Z,0
2018-10-21T01:40:14.431Z,0
2018-10-21T01:41:14.215Z,0
2018-10-21T01:42:14.485Z,0
2018-10-21T01:43:14.520Z,0
2018-10-21T01:44:15.189Z,0
2018-10-21T01:45:14.507Z,0
2018-10-21T01:46:14.601Z,0
2018-10-21T01:47:14.617Z,0
2018-10-21T01:48:14.917Z,0
2018-10-21T01:49:14.419Z,0
2018-10-21T01:50:14.697Z,0
2018-10-21T01:51:15.384Z,0
2018-10-21T01:52:15.010Z,0
2018-10-21T01:53:14.537Z,0
2018-10-21T01:54:14.815Z,0
2018-10-21T01:55:15.202Z,0
2018-10-21T01:56:14.609Z,0
2018-10-21T01:57:15.210Z,0
2018-10-21T01:58:14.919Z,0
2018-10-21T01:59:14.697Z,0
2018-10-21T02:00:14.975Z,0
2018-10-21T02:01:14.996Z,0
2018-10-21T02:02:15.270Z,0
2018-10-21T02:03:14.613Z,0
2018-10-21T02:04:14.570Z,0
2018-10-21T02:05:14.604Z,0
2018-10-21T02:06:14.876Z,0
2018-10-21T02:07:14.904Z,0
2018-10-21T02:08:14.682Z,0
2018-10-21T02:09:15.547Z,0
2018-10-21T02:10:14.985Z,0
2018-10-21T02:11:15.014Z,0
2018-10-21T02:12:15.046Z,0
2018-10-21T02:13:15.368Z,0
2018-10-21T02:14:15.513Z,0
2018-10-21T02:15:15.732Z,0
2018-10-21T02:16:15.652Z,0
2018-10-21T02:17:15.462Z,0
2018-10-21T02:18:15.207Z,0
2018-10-21T02:19:15.479Z,0
2018-10-21T02:20:15.752Z,0
2018-10-21T02:21:15.574Z,0
2018-10-21T02:22:15.558Z,0
2018-10-21T02:23:15.829Z,0
2018-10-21T02:24:15.860Z,0
2018-10-21T02:25:15.632Z,0
2018-10-21T02:26:15.813Z,0
2018-10-21T02:27:15.931Z,0
2018-10-21T02:28:15.776Z,0
2018-10-21T02:29:15.987Z,0
2018-10-21T02:30:15.772Z,0
2018-10-21T02:31:15.551Z,0
2018-10-21T02:32:15.836Z,0
2018-10-21T02:33:16.789Z,0
2018-10-21T02:34:15.628Z,0
2018-10-21T02:35:15.658Z,0
2018-10-21T02:36:15.927Z,0
2018-10-21T02:37:15.701Z,0
2018-10-21T02:38:15.981Z,0
2018-10-21T02:39:16.245Z,0
2018-10-21T02:40:15.539Z,0
2018-10-21T02:41:16.077Z,0
2018-10-21T02:42:16.368Z,0
2018-10-21T02:43:15.873Z,0
2018-10-21T02:44:16.165Z,0
2018-10-21T02:45:16.865Z,0
2018-10-21T02:46:16.454Z,0
2018-10-21T02:47:15.983Z,0
2018-10-21T02:48:16.000Z,0
2018-10-21T02:49:16.534Z,0
2018-10-21T02:50:16.059Z,0
2018-10-21T02:51:16.319Z,0
2018-10-21T02:52:16.369Z,0
2018-10-21T02:53:16.131Z,0
2018-10-21T02:54:16.414Z,0
2018-10-21T02:55:16.437Z,0
2018-10-21T02:56:16.477Z,0
2018-10-21T02:57:16.861Z,0
2018-10-21T02:58:16.266Z,0
2018-10-21T02:59:16.034Z,0
2018-10-21T03:00:16.573Z,0
2018-10-21T03:01:16.348Z,0
2018-10-21T03:02:16.632Z,0
2018-10-21T03:03:16.682Z,0
2018-10-21T03:04:16.680Z,0
2018-10-21T03:05:16.698Z,0
2018-10-21T03:06:16.488Z,0
2018-10-21T03:07:16.253Z,0
2018-10-21T03:08:16.283Z,0
2018-10-21T03:09:17.080Z,0
2018-10-21T03:10:16.584Z,0
2018-10-21T03:11:16.608Z,0
2018-10-21T03:12:16.885Z,0
2018-10-21T03:13:16.916Z,0
2018-10-21T03:14:16.691Z,0
2018-10-21T03:15:17.708Z,0
2018-10-21T03:16:17.003Z,0
2018-10-21T03:17:17.031Z,0
2018-10-21T03:18:17.536Z,0
2018-10-21T03:19:17.376Z,0
2018-10-21T03:20:17.105Z,0
2018-10-21T03:21:17.940Z,0
2018-10-21T03:22:17.156Z,0
2018-10-21T03:23:17.437Z,0
2018-10-21T03:24:17.455Z,0
2018-10-21T03:25:17.493Z,0
2018-10-21T03:26:17.518Z,0
2018-10-21T03:27:17.780Z,0
2018-10-21T03:28:17.353Z,0
2018-10-21T03:29:17.355Z,0
2018-10-21T03:30:17.396Z,0
2018-10-21T03:31:17.661Z,0
2018-10-21T03:32:17.434Z,0
2018-10-21T03:33:18.274Z,0
2018-10-21T03:34:17.541Z,0
2018-10-21T03:35:17.773Z,0
2018-10-21T03:36:17.537Z,0
2018-10-21T03:37:17.554Z,0
2018-10-21T03:38:17.577Z,0
2018-10-21T03:39:17.610Z,0
2018-10-21T03:40:17.664Z,0
2018-10-21T03:41:17.412Z,0
2018-10-21T03:42:17.446Z,0
2018-10-21T03:43:17.718Z,0
2018-10-21T03:44:17.742Z,0
2018-10-21T03:45:23.532Z,0
2018-10-21T03:46:18.056Z,0
2018-10-21T03:47:17.566Z,0
2018-10-21T03:48:17.597Z,0
2018-10-21T03:49:17.884Z,0
2018-10-21T03:50:18.145Z,0
2018-10-21T03:51:18.174Z,0
2018-10-21T03:52:17.923Z,0
2018-10-21T03:53:17.979Z,0
2018-10-21T03:54:17.757Z,0
2018-10-21T03:55:17.777Z,0
2018-10-21T03:56:17.559Z,0
2018-10-21T03:57:17.583Z,0
2018-10-21T03:58:18.365Z,0
2018-10-21T03:59:17.886Z,0
2018-10-21T04:00:17.915Z,0
2018-10-21T04:01:17.684Z,0
2018-10-21T04:02:18.218Z,0
2018-10-21T04:03:18.244Z,0
2018-10-21T04:04:18.501Z,0
2018-10-21T04:05:18.051Z,0
2018-10-21T04:06:18.321Z,0
2018-10-21T04:07:18.106Z,0
2018-10-21T04:08:18.631Z,0
2018-10-21T04:09:18.410Z,0
2018-10-21T04:10:18.351Z,0
2018-10-21T04:11:18.463Z,0
2018-10-21T04:12:18.232Z,0
2018-10-21T04:13:18.511Z,0
2018-10-21T04:14:18.732Z,0
2018-10-21T04:15:18.559Z,0
2018-10-21T04:16:19.442Z,0
2018-10-21T04:17:18.364Z,0
2018-10-21T04:18:18.651Z,0
2018-10-21T04:19:18.675Z,0
2018-10-21T04:20:18.442Z,0
2018-10-21T04:21:18.969Z,0
2018-10-21T04:22:18.982Z,0
2018-10-21T04:23:19.028Z,0
2018-10-21T04:24:18.810Z,0
2018-10-21T04:25:18.832Z,0
2018-10-21T04:26:18.608Z,0
2018-10-21T04:27:18.635Z,0
2018-10-21T04:28:19.337Z,0
2018-10-21T04:29:18.940Z,0
2018-10-21T04:30:18.474Z,0
2018-10-21T04:31:18.741Z,0
2018-10-21T04:32:18.769Z,0
2018-10-21T04:33:18.791Z,0
2018-10-21T04:34:18.919Z,0
2018-10-21T04:35:18.884Z,0
2018-10-21T04:36:19.123Z,0
2018-10-21T04:37:18.905Z,0
2018-10-21T04:38:18.923Z,0
2018-10-21T04:39:18.960Z,0
2018-10-21T04:40:19.302Z,0
2018-10-21T04:41:19.267Z,0
2018-10-21T04:42:19.298Z,0
2018-10-21T04:43:19.063Z,0
2018-10-21T04:44:19.090Z,0
2018-10-21T04:45:19.122Z,0
2018-10-21T04:46:19.654Z,0
2018-10-21T04:47:19.730Z,0
2018-10-21T04:48:19.447Z,0
2018-10-21T04:49:19.217Z,0
2018-10-21T04:50:19.498Z,0
2018-10-21T04:51:19.280Z,0
2018-10-21T04:52:20.284Z,0
2018-10-21T04:53:19.333Z,0
2018-10-21T04:54:19.366Z,0
2018-10-21T04:55:19.639Z,0
2018-10-21T04:56:19.412Z,0
2018-10-21T04:57:19.683Z,0
2018-10-21T04:58:20.245Z,0
2018-10-21T04:59:19.486Z,0
2018-10-21T05:00:19.523Z,0
2018-10-21T05:01:20.056Z,0
2018-10-21T05:02:19.825Z,0
2018-10-21T05:03:19.605Z,0
2018-10-21T05:04:19.808Z,0
2018-10-21T05:05:20.155Z,0
2018-10-21T05:06:19.927Z,0
2018-10-21T05:07:20.322Z,0
2018-10-21T05:08:19.728Z,0
2018-10-21T05:09:20.268Z,0
2018-10-21T05:10:20.609Z,0
2018-10-21T05:11:20.312Z,0
2018-10-21T05:12:20.353Z,0
2018-10-21T05:13:20.365Z,0
2018-10-21T05:14:20.402Z,0
2018-10-21T05:15:20.900Z,0
2018-10-21T05:16:20.575Z,0
2018-10-21T05:17:20.232Z,0
2018-10-21T05:18:20.000Z,0
2018-10-21T05:19:20.336Z,0
2018-10-21T05:20:20.064Z,0
2018-10-21T05:21:20.587Z,0
2018-10-21T05:22:20.636Z,0
2018-10-21T05:23:19.886Z,0
2018-10-21T05:24:20.157Z,0
2018-10-21T05:25:20.452Z,0
2018-10-21T05:26:20.215Z,0
2018-10-21T05:27:20.748Z,0
2018-10-21T05:28:20.438Z,0
2018-10-21T05:29:20.800Z,0
2018-10-21T05:30:20.574Z,0
2018-10-21T05:31:20.353Z,0
2018-10-21T05:32:20.380Z,0
2018-10-21T05:33:20.913Z,0
2018-10-21T05:34:20.879Z,0
2018-10-21T05:35:20.711Z,0
2018-10-21T05:36:20.797Z,0
2018-10-21T05:37:21.015Z,0
2018-10-21T05:38:20.535Z,0
2018-10-21T05:39:21.072Z,0
2018-10-21T05:40:21.150Z,0
2018-10-21T05:41:20.885Z,0
2018-10-21T05:42:20.900Z,0
2018-10-21T05:43:20.679Z,0
2018-10-21T05:44:21.209Z,0
2018-10-21T05:45:20.727Z,0
2018-10-21T05:46:20.930Z,0
2018-10-21T05:47:21.641Z,0
2018-10-21T05:48:21.321Z,0
2018-10-21T05:49:20.841Z,0
2018-10-21T05:50:21.369Z,0
2018-10-21T05:51:21.146Z,0
2018-10-21T05:52:20.925Z,0
2018-10-21T05:53:20.945Z,0
2018-10-21T05:54:20.717Z,0
2018-10-21T05:55:21.496Z,0
2018-10-21T05:56:21.530Z,0
2018-10-21T05:57:21.049Z,0
2018-10-21T05:58:21.563Z,0
2018-10-21T05:59:21.355Z,0
2018-10-21T06:00:21.670Z,0
2018-10-21T06:01:20.912Z,0
2018-10-21T06:02:21.443Z,0
2018-10-21T06:03:21.217Z,0
2018-10-21T06:04:21.505Z,0
2018-10-21T06:05:21.274Z,0
2018-10-21T06:06:21.548Z,0
2018-10-21T06:07:21.576Z,0
2018-10-21T06:08:21.102Z,0
2018-10-21T06:09:21.883Z,0
2018-10-21T06:10:21.970Z,0
2018-10-21T06:11:21.688Z,0
2018-10-21T06:12:21.453Z,0
2018-10-21T06:13:21.737Z,0
2018-10-21T06:14:22.020Z,0
2018-10-21T06:15:21.533Z,0
2018-10-21T06:16:22.578Z,0
2018-10-21T06:17:21.590Z,0
2018-10-21T06:18:22.130Z,0
2018-10-21T06:19:21.902Z,0
2018-10-21T06:20:21.677Z,0
2018-10-21T06:21:22.211Z,0
2018-10-21T06:22:22.298Z,0
2018-10-21T06:23:22.248Z,0
2018-10-21T06:24:22.036Z,0
2018-10-21T06:25:22.061Z,0
2018-10-21T06:26:22.081Z,0
2018-10-21T06:27:22.121Z,0
2018-10-21T06:28:22.143Z,0
2018-10-21T06:29:22.427Z,0
2018-10-21T06:30:22.202Z,0
2018-10-21T06:31:22.299Z,0
2018-10-21T06:32:22.252Z,0
2018-10-21T06:33:22.875Z,0
2018-10-21T06:34:22.303Z,0
2018-10-21T06:35:21.837Z,0
2018-10-21T06:36:22.619Z,0
2018-10-21T06:37:21.895Z,0
2018-10-21T06:38:22.665Z,0
2018-10-21T06:39:22.424Z,0
2018-10-21T06:40:22.218Z,0
2018-10-21T06:41:22.492Z,0
2018-10-21T06:42:22.766Z,0
2018-10-21T06:43:22.552Z,0
2018-10-21T06:44:22.822Z,0
2018-10-21T06:45:23.712Z,0
2018-10-21T06:46:22.884Z,0
2018-10-21T06:47:22.407Z,0
2018-10-21T06:48:22.844Z,0
2018-10-21T06:49:22.708Z,0
2018-10-21T06:50:22.232Z,0
2018-10-21T06:51:22.764Z,0
2018-10-21T06:52:22.784Z,0
2018-10-21T06:53:22.812Z,0
2018-10-21T06:54:22.847Z,0
2018-10-21T06:55:22.874Z,0
2018-10-21T06:56:23.404Z,0
2018-10-21T06:57:24.391Z,0
2018-10-21T06:58:22.696Z,0
2018-10-21T06:59:22.723Z,0
2018-10-21T07:00:23.260Z,0
2018-10-21T07:01:23.027Z,0
2018-10-21T07:02:23.304Z,0
2018-10-21T07:03:23.338Z,0
2018-10-21T07:04:23.335Z,0
2018-10-21T07:05:23.150Z,0
2018-10-21T07:06:23.420Z,0
2018-10-21T07:07:23.442Z,0
2018-10-21T07:08:23.220Z,0
2018-10-21T07:09:22.743Z,0
2018-10-21T07:10:23.713Z,0
2018-10-21T07:11:23.552Z,0
2018-10-21T07:12:23.581Z,0
2018-10-21T07:13:23.353Z,0
2018-10-21T07:14:23.635Z,0
2018-10-21T07:15:23.349Z,0
2018-10-21T07:16:24.092Z,0
2018-10-21T07:17:23.459Z,0
2018-10-21T07:18:23.240Z,0
2018-10-21T07:19:23.771Z,0
2018-10-21T07:20:23.536Z,0
2018-10-21T07:21:23.339Z,0
2018-10-21T07:22:23.769Z,0
2018-10-21T07:23:23.630Z,0
2018-10-21T07:24:23.911Z,0
2018-10-21T07:25:23.934Z,0
2018-10-21T07:26:23.711Z,0
2018-10-21T07:27:23.482Z,0
2018-10-21T07:28:23.951Z,0
2018-10-21T07:29:23.540Z,0
2018-10-21T07:30:23.811Z,0
2018-10-21T07:31:23.838Z,0
2018-10-21T07:32:23.870Z,0
2018-10-21T07:33:23.896Z,0
2018-10-21T07:34:24.122Z,0
2018-10-21T07:35:23.953Z,0
2018-10-21T07:36:24.785Z,0
2018-10-21T07:37:24.258Z,0
2018-10-21T07:38:24.035Z,0
2018-10-21T07:39:24.061Z,0
2018-10-21T07:40:24.275Z,0
2018-10-21T07:41:24.363Z,0
2018-10-21T07:42:23.643Z,0
2018-10-21T07:43:23.910Z,0
2018-10-21T07:44:24.452Z,0
2018-10-21T07:45:23.972Z,20
2018-10-21T07:46:24.427Z,32
2018-10-21T07:47:24.525Z,32
2018-10-21T07:48:24.303Z,36
2018-10-21T07:49:24.516Z,36
2018-10-21T07:50:24.603Z,36
2018-10-21T07:51:24.383Z,40
2018-10-21T07:52:24.686Z,36
2018-10-21T07:53:24.181Z,40
2018-10-21T07:54:24.470Z,40
2018-10-21T07:55:25.024Z,40
2018-10-21T07:56:24.273Z,40
2018-10-21T07:57:24.544Z,40
2018-10-21T07:58:24.849Z,40
2018-10-21T07:59:24.591Z,36
2018-10-21T08:00:24.873Z,40
2018-10-21T08:01:25.192Z,40
2018-10-21T08:02:24.425Z,40
2018-10-21T08:03:24.700Z,40
2018-10-21T08:04:24.744Z,40
2018-10-21T08:05:24.757Z,44
2018-10-21T08:06:24.786Z,40
2018-10-21T08:07:24.811Z,40
2018-10-21T08:08:24.831Z,44
2018-10-21T08:09:24.867Z,40
2018-10-21T08:10:24.640Z,44
2018-10-21T08:11:24.662Z,44
2018-10-21T08:12:24.947Z,44
2018-10-21T08:13:25.234Z,44
2018-10-21T08:14:25.009Z,44
2018-10-21T08:15:25.042Z,44
2018-10-21T08:16:25.200Z,44
2018-10-21T08:17:25.075Z,44
2018-10-21T08:18:25.102Z,44
2018-10-21T08:19:24.889Z,44
2018-10-21T08:20:25.163Z,44
2018-10-21T08:21:25.950Z,44
2018-10-21T08:22:24.959Z,44
2018-10-21T08:23:24.991Z,48
2018-10-21T08:24:24.761Z,48
2018-10-21T08:25:25.047Z,44
2018-10-21T08:26:25.065Z,48
2018-10-21T08:27:26.361Z,48
2018-10-21T08:28:25.699Z,44
2018-10-21T08:29:25.150Z,48
2018-10-21T08:30:25.426Z,48
2018-10-21T08:31:25.707Z,48
2018-10-21T08:32:25.480Z,48
2018-10-21T08:33:25.250Z,48
2018-10-21T08:34:26.038Z,48
2018-10-21T08:35:25.062Z,44
2018-10-21T08:36:25.908Z,44
2018-10-21T08:37:25.355Z,48
2018-10-21T08:38:25.639Z,48
2018-10-21T08:39:25.419Z,48
2018-10-21T08:40:25.692Z,48
2018-10-21T08:41:25.970Z,48
2018-10-21T08:42:25.250Z,48
2018-10-21T08:43:26.018Z,52
2018-10-21T08:44:25.555Z,52
2018-10-21T08:45:25.819Z,48
2018-10-21T08:46:25.858Z,48
2018-10-21T08:47:26.174Z,48
2018-10-21T08:48:26.155Z,48
2018-10-21T08:49:26.306Z,52
2018-10-21T08:50:25.952Z,48
2018-10-21T08:51:25.736Z,48
2018-10-21T08:52:26.267Z,48
2018-10-21T08:53:25.785Z,48
2018-10-21T08:54:26.322Z,48
2018-10-21T08:55:26.086Z,48
2018-10-21T08:56:26.368Z,48
2018-10-21T08:57:25.636Z,48
2018-10-21T08:58:26.175Z,48
2018-10-21T08:59:26.189Z,48
2018-10-21T09:00:26.229Z,52
2018-10-21T09:01:26.245Z,48
2018-10-21T09:02:26.526Z,48
2018-10-21T09:03:26.554Z,52
2018-10-21T09:04:26.574Z,52
2018-10-21T09:05:26.351Z,52
2018-10-21T09:06:26.125Z,52
2018-10-21T09:07:26.410Z,52
2018-10-21T09:08:26.184Z,48
2018-10-21T09:09:26.203Z,52
2018-10-21T09:10:26.986Z,52
2018-10-21T09:11:26.511Z,48
2018-10-21T09:12:26.592Z,48
2018-10-21T09:13:26.564Z,48
2018-10-21T09:14:26.333Z,48
2018-10-21T09:15:26.737Z,52
2018-10-21T09:16:27.709Z,52
2018-10-21T09:17:26.420Z,48
2018-10-21T09:18:26.695Z,48
2018-10-21T09:19:26.477Z,48
2018-10-21T09:20:26.753Z,48
2018-10-21T09:21:27.030Z,48
2018-10-21T09:22:26.561Z,48
2018-10-21T09:23:26.824Z,48
2018-10-21T09:24:26.850Z,48
2018-10-21T09:25:27.132Z,52
2018-10-21T09:26:26.919Z,52
2018-10-21T09:27:26.681Z,52
2018-10-21T09:28:27.224Z,48
2018-10-21T09:29:26.737Z,48
2018-10-21T09:30:26.509Z,52
2018-10-21T09:31:27.058Z,52
2018-10-21T09:32:26.812Z,52
2018-10-21T09:33:27.090Z,52
2018-10-21T09:34:27.379Z,48
2018-10-21T09:35:27.143Z,48
2018-10-21T09:36:27.435Z,48
2018-10-21T09:37:27.455Z,48
2018-10-21T09:38:27.226Z,48
2018-10-21T09:39:27.249Z,48
2018-10-21T09:40:27.258Z,48
2018-10-21T09:41:27.308Z,48
2018-10-21T09:42:27.853Z,52
2018-10-21T09:43:26.864Z,52
2018-10-21T09:44:26.885Z,52
2018-10-21T09:45:26.907Z,52
2018-10-21T09:46:27.445Z,52
2018-10-21T09:47:27.718Z,52
2018-10-21T09:48:27.743Z,48
2018-10-21T09:49:27.272Z,52
2018-10-21T09:50:27.544Z,48
2018-10-21T09:51:27.577Z,48
2018-10-21T09:52:27.859Z,48
2018-10-21T09:53:27.635Z,28
2018-10-21T09:54:27.647Z,28
2018-10-21T09:55:27.681Z,28
2018-10-21T09:56:27.707Z,28
2018-10-21T09:57:27.726Z,28
2018-10-21T09:58:27.997Z,28
2018-10-21T09:59:27.533Z,28
2018-10-21T10:00:27.819Z,28
2018-10-21T10:01:28.095Z,28
2018-10-21T10:02:28.119Z,28
2018-10-21T10:03:27.889Z,28
2018-10-21T10:04:28.308Z,28
2018-10-21T10:05:28.808Z,28
2018-10-21T10:06:27.985Z,28
2018-10-21T10:07:27.506Z,28
2018-10-21T10:08:28.280Z,28
2018-10-21T10:09:28.306Z,28
2018-10-21T10:10:28.335Z,28
2018-10-21T10:11:27.855Z,28
2018-10-21T10:12:27.878Z,28
2018-10-21T10:13:27.917Z,28
2018-10-21T10:14:27.934Z,28
2018-10-21T10:15:27.962Z,28
2018-10-21T10:16:28.238Z,28
2018-10-21T10:17:28.557Z,28
2018-10-21T10:18:28.299Z,28
2018-10-21T10:19:28.314Z,28
2018-10-21T10:20:28.341Z,28
2018-10-21T10:21:28.116Z,28
2018-10-21T10:22:27.895Z,28
2018-10-21T10:23:28.383Z,28
2018-10-21T10:24:27.946Z,28
2018-10-21T10:25:28.224Z,28
2018-10-21T10:26:28.502Z,28
2018-10-21T10:27:28.535Z,24
2018-10-21T10:28:28.553Z,28
2018-10-21T10:29:28.084Z,24
2018-10-21T10:30:28.939Z,28
2018-10-21T10:31:28.635Z,24
2018-10-21T10:32:28.410Z,28
2018-10-21T10:33:28.680Z,28
2018-10-21T10:34:28.964Z,24
2018-10-21T10:35:28.757Z,20
2018-10-21T10:36:28.847Z,28
2018-10-21T10:37:28.797Z,28
2018-10-21T10:38:28.315Z,24
2018-10-21T10:39:28.602Z,28
2018-10-21T10:40:28.879Z,28
2018-10-21T10:41:28.893Z,28
2018-10-21T10:42:28.943Z,24
2018-10-21T10:43:28.989Z,28
2018-10-21T10:44:28.982Z,28
2018-10-21T10:45:28.762Z,24
2018-10-21T10:46:28.789Z,28
2018-10-21T10:47:28.803Z,28
2018-10-21T10:48:29.085Z,24
2018-10-21T10:49:28.859Z,28
2018-10-21T10:50:29.148Z,28
2018-10-21T10:51:28.913Z,24
2018-10-21T10:52:28.951Z,20
2018-10-21T10:53:29.224Z,28
2018-10-21T10:54:29.240Z,28
2018-10-21T10:55:29.530Z,24
2018-10-21T10:56:29.295Z,28
2018-10-21T10:57:29.326Z,28
2018-10-21T10:58:29.100Z,24
2018-10-21T10:59:29.240Z,24
2018-10-21T11:00:29.670Z,24
2018-10-21T11:01:29.436Z,24
2018-10-21T11:02:29.710Z,24
2018-10-21T11:03:29.277Z,28
2018-10-21T11:04:29.260Z,28
2018-10-21T11:05:29.287Z,28
2018-10-21T11:06:29.893Z,32
2018-10-21T11:07:29.591Z,32
2018-10-21T11:08:29.373Z,28
2018-10-21T11:09:29.648Z,28
2018-10-21T11:10:29.924Z,32
2018-10-21T11:11:29.660Z,32
2018-10-21T11:12:29.984Z,32
2018-10-21T11:13:29.753Z,32
2018-10-21T11:14:29.833Z,32
2018-10-21T11:15:29.556Z,32
2018-10-21T11:16:29.841Z,32
2018-10-21T11:17:29.856Z,28
2018-10-21T11:18:30.177Z,32
2018-10-21T11:19:29.917Z,32
2018-10-21T11:20:29.684Z,32
2018-10-21T11:21:29.975Z,28
2018-10-21T11:22:30.397Z,32
2018-10-21T11:23:30.024Z,28
2018-10-21T11:24:30.336Z,32
2018-10-21T11:25:29.818Z,28
2018-10-21T11:26:30.105Z,32
2018-10-21T11:27:29.872Z,32
2018-10-21T11:28:30.407Z,32
2018-10-21T11:29:30.177Z,24
2018-10-21T11:30:29.956Z,24
2018-10-21T11:31:30.238Z,24
2018-10-21T11:32:30.019Z,32
2018-10-21T11:33:30.542Z,32
2018-10-21T11:34:30.579Z,36
2018-10-21T11:35:30.082Z,36
2018-10-21T11:36:29.881Z,28
2018-10-21T11:37:31.261Z,32
2018-10-21T11:38:30.668Z,36
2018-10-21T11:39:30.194Z,32
2018-10-21T11:40:29.968Z,32
2018-10-21T11:41:30.501Z,32
2018-10-21T11:42:30.271Z,28
2018-10-21T11:43:30.806Z,28
2018-10-21T11:44:30.326Z,24
2018-10-21T11:45:30.708Z,24
2018-10-21T11:46:31.349Z,28
2018-10-21T11:47:30.666Z,32
2018-10-21T11:48:30.469Z,32
2018-10-21T11:49:30.977Z,36
2018-10-21T11:50:30.485Z,36
2018-10-21T11:51:30.766Z,36
2018-10-21T11:52:30.599Z,28
2018-10-21T11:53:31.071Z,24
2018-10-21T11:54:31.093Z,32
2018-10-21T11:55:30.622Z,24
2018-10-21T11:56:31.150Z,24
2018-10-21T11:57:30.684Z,28
2018-10-21T11:58:31.211Z,32
2018-10-21T11:59:30.730Z,28
2018-10-21T12:00:30.506Z,32
2018-10-21T12:01:30.778Z,32
2018-10-21T12:02:31.316Z,28
2018-10-21T12:03:31.333Z,32
2018-10-21T12:04:31.365Z,28
2018-10-21T12:05:30.891Z,32
2018-10-21T12:06:31.167Z,28
2018-10-21T12:07:31.196Z,32
2018-10-21T12:08:31.220Z,28
2018-10-21T12:09:31.239Z,32
2018-10-21T12:10:31.018Z,28
2018-10-21T12:11:31.051Z,28
2018-10-21T12:12:31.319Z,32
2018-10-21T12:13:31.358Z,28
2018-10-21T12:14:31.132Z,28
2018-10-21T12:15:31.661Z,28
2018-10-21T12:16:31.434Z,28
2018-10-21T12:17:31.464Z,28
2018-10-21T12:18:31.739Z,28
2018-10-21T12:19:31.559Z,28
2018-10-21T12:20:31.788Z,28
2018-10-21T12:21:31.566Z,24
2018-10-21T12:22:31.467Z,28
2018-10-21T12:23:32.084Z,28
2018-10-21T12:24:31.649Z,24
2018-10-21T12:25:31.231Z,24
2018-10-21T12:26:31.692Z,28
2018-10-21T12:27:31.738Z,24
2018-10-21T12:28:31.503Z,24
2018-10-21T12:29:31.778Z,24
2018-10-21T12:30:31.311Z,24
2018-10-21T12:31:31.843Z,24
2018-10-21T12:32:31.861Z,24
2018-10-21T12:33:31.885Z,24
2018-10-21T12:34:31.919Z,24
2018-10-21T12:35:32.193Z,24
2018-10-21T12:36:31.967Z,24
2018-10-21T12:37:32.243Z,24
2018-10-21T12:38:31.764Z,24
2018-10-21T12:39:31.795Z,24
2018-10-21T12:40:32.073Z,20
2018-10-21T12:41:31.852Z,24
2018-10-21T12:42:32.130Z,24
2018-10-21T12:43:32.164Z,24
2018-10-21T12:44:32.182Z,24
2018-10-21T12:45:32.159Z,24
2018-10-21T12:46:31.989Z,24
2018-10-21T12:47:32.514Z,24
2018-10-21T12:48:32.286Z,24
2018-10-21T12:49:32.318Z,24
2018-10-21T12:50:32.346Z,24
2018-10-21T12:51:32.113Z,24
2018-10-21T12:52:32.393Z,20
2018-10-21T12:53:32.428Z,20
2018-10-21T12:54:32.584Z,24
2018-10-21T12:55:32.552Z,24
2018-10-21T12:56:32.502Z,20
2018-10-21T12:57:32.778Z,20
2018-10-21T12:58:32.309Z,24
2018-10-21T12:59:32.580Z,20
2018-10-21T13:00:32.347Z,20
2018-10-21T13:01:32.398Z,24
2018-10-21T13:02:33.080Z,24
2018-10-21T13:03:32.687Z,20
2018-10-21T13:04:32.731Z,24
2018-10-21T13:05:32.986Z,24
2018-10-21T13:06:32.514Z,24
2018-10-21T13:07:33.037Z,20
2018-10-21T13:08:32.818Z,20
2018-10-21T13:09:32.352Z,20
2018-10-21T13:10:32.364Z,20
2018-10-21T13:11:32.905Z,20
2018-10-21T13:12:32.425Z,20
2018-10-21T13:13:33.205Z,24
2018-10-21T13:14:32.484Z,24
2018-10-21T13:15:33.012Z,24
2018-10-21T13:16:33.291Z,24
2018-10-21T13:17:32.808Z,24
2018-10-21T13:18:33.086Z,24
2018-10-21T13:19:33.134Z,24
2018-10-21T13:20:32.885Z,24
2018-10-21T13:21:33.422Z,24
2018-10-21T13:22:33.208Z,24
2018-10-21T13:23:32.972Z,24
2018-10-21T13:24:33.252Z,24
2018-10-21T13:25:33.532Z,24
2018-10-21T13:26:33.046Z,20
2018-10-21T13:27:33.324Z,24
2018-10-21T13:28:33.192Z,24
2018-10-21T13:29:33.632Z,24
2018-10-21T13:30:33.422Z,24
2018-10-21T13:31:33.439Z,24
2018-10-21T13:32:33.213Z,20
2018-10-21T13:33:33.240Z,20
2018-10-21T13:34:33.902Z,20
2018-10-21T13:35:33.303Z,24
2018-10-21T13:36:33.326Z,24
2018-10-21T13:37:33.851Z,20
2018-10-21T13:38:33.632Z,20
2018-10-21T13:39:33.919Z,20
2018-10-21T13:40:33.936Z,20
2018-10-21T13:41:33.746Z,20
2018-10-21T13:42:33.730Z,20
2018-10-21T13:43:34.004Z,20
2018-10-21T13:44:33.536Z,20
2018-10-21T13:45:34.062Z,20
2018-10-21T13:46:34.422Z,20
2018-10-21T13:47:33.916Z,20
2018-10-21T13:48:33.893Z,20
2018-10-21T13:49:34.221Z,20
2018-10-21T13:50:33.694Z,20
2018-10-21T13:51:33.866Z,20
2018-10-21T13:52:34.677Z,20
2018-10-21T13:53:34.881Z,20
2018-10-21T13:54:33.550Z,20
2018-10-21T13:55:34.077Z,16
2018-10-21T13:56:34.113Z,20
2018-10-21T13:57:33.883Z,20
2018-10-21T13:58:34.171Z,20
2018-10-21T13:59:34.452Z,20
2018-10-21T14:00:34.169Z,20
2018-10-21T14:01:34.317Z,20
2018-10-21T14:02:34.015Z,20
2018-10-21T14:03:34.042Z,20
2018-10-21T14:04:34.075Z,20
2018-10-21T14:05:34.346Z,20
2018-10-21T14:06:34.373Z,20
2018-10-21T14:07:34.581Z,20
2018-10-21T14:08:34.187Z,20
2018-10-21T14:09:34.705Z,20
2018-10-21T14:10:34.264Z,16
2018-10-21T14:11:34.516Z,16
2018-10-21T14:12:34.787Z,20
2018-10-21T14:13:34.308Z,20
2018-10-21T14:14:34.840Z,16
2018-10-21T14:15:34.622Z,20
2018-10-21T14:16:35.852Z,20
2018-10-21T14:17:34.174Z,16
2018-10-21T14:18:34.863Z,16
2018-10-21T14:19:34.475Z,20
2018-10-21T14:20:34.762Z,16
2018-10-21T14:21:34.276Z,16
2018-10-21T14:22:35.066Z,16
2018-10-21T14:23:34.834Z,16
2018-10-21T14:24:35.153Z,16
2018-10-21T14:25:34.625Z,12
2018-10-21T14:26:34.923Z,16
2018-10-21T14:27:35.370Z,12
2018-10-21T14:28:34.969Z,16
2018-10-21T14:29:35.238Z,16
2018-10-21T14:30:34.906Z,16
2018-10-21T14:31:34.548Z,16
2018-10-21T14:32:34.567Z,16